createdAt,value
2017-09-21T00:00:46.467Z,11.70
2017-09-21T00:03:17.420Z,11.70
2017-09-21T00:05:48.279Z,11.70
2017-09-21T00:08:20.196Z,11.70
2017-09-21T00:10:51.484Z,11.60
2017-09-21T00:13:22.814Z,11.60
2017-09-21T00:15:53.465Z,11.60
2017-09-21T00:18:24.329Z,11.60
2017-09-21T00:20:55.311Z,11.50
2017-09-21T00:23:26.628Z,11.50
2017-09-21T00:25:57.233Z,11.60
2017-09-21T00:28:27.835Z,11.60
2017-09-21T00:30:59.444Z,11.60
2017-09-21T00:33:29.928Z,11.50
2017-09-21T00:36:01.526Z,11.40
2017-09-21T00:38:31.806Z,11.40
2017-09-21T00:41:03.233Z,11.40
2017-09-21T00:43:34.730Z,11.40
2017-09-21T00:46:05.840Z,11.30
2017-09-21T00:48:37.620Z,11.30
2017-09-21T00:51:10.448Z,11.30
2017-09-21T00:53:41.182Z,11.30
2017-09-21T00:56:12.910Z,11.30
2017-09-21T00:58:44.418Z,11.20
2017-09-21T01:01:15.018Z,11.20
2017-09-21T01:03:45.761Z,11.20
2017-09-21T01:06:16.905Z,11.10
2017-09-21T01:08:48.628Z,11.10
2017-09-21T01:11:20.116Z,11.10
2017-09-21T01:13:51.556Z,11.10
2017-09-21T01:16:22.101Z,11.10
2017-09-21T01:18:52.832Z,11.10
2017-09-21T01:21:24.512Z,11.10
2017-09-21T01:23:55.970Z,11.00
2017-09-21T01:26:27.005Z,11.00
2017-09-21T01:28:58.607Z,11.00
2017-09-21T01:31:30.183Z,11.00
2017-09-21T01:34:01.665Z,10.90
2017-09-21T01:36:33.433Z,10.90
2017-09-21T01:39:04.842Z,10.90
2017-09-21T01:41:35.346Z,10.80
2017-09-21T01:44:06.286Z,10.90
2017-09-21T01:46:37.300Z,10.90
2017-09-21T01:49:08.009Z,10.80
2017-09-21T01:51:40.130Z,10.80
2017-09-21T01:54:11.071Z,10.80
2017-09-21T01:56:41.541Z,10.70
2017-09-21T01:59:12.612Z,10.70
2017-09-21T02:01:44.110Z,10.60
2017-09-21T02:04:16.306Z,10.60
2017-09-21T02:06:47.612Z,10.60
2017-09-21T02:09:18.170Z,10.60
2017-09-21T02:11:49.664Z,10.60
2017-09-21T02:14:20.221Z,10.60
2017-09-21T02:16:51.240Z,10.70
2017-09-21T02:19:22.422Z,10.60
2017-09-21T02:21:54.005Z,10.60
2017-09-21T02:24:24.975Z,10.60
2017-09-21T02:26:55.726Z,10.60
2017-09-21T02:29:27.699Z,10.60
2017-09-21T02:31:58.525Z,10.60
2017-09-21T02:34:29.945Z,10.60
2017-09-21T02:37:00.916Z,10.40
2017-09-21T02:39:31.967Z,10.30
2017-09-21T02:42:02.959Z,10.10
2017-09-21T02:44:34.201Z,10.00
2017-09-21T02:47:05.528Z,10.10
2017-09-21T02:49:37.069Z,10.10
2017-09-21T02:52:09.001Z,10.10
2017-09-21T02:54:40.186Z,10.10
2017-09-21T02:57:11.267Z,10.10
2017-09-21T02:59:42.365Z,10.00
2017-09-21T03:02:13.356Z,10.00
2017-09-21T03:04:44.291Z,10.00
2017-09-21T03:07:15.413Z,10.00
2017-09-21T03:09:46.805Z,9.90
2017-09-21T03:12:17.810Z,9.90
2017-09-21T03:14:49.402Z,9.80
2017-09-21T03:17:20.330Z,9.80
2017-09-21T03:19:51.631Z,9.70
2017-09-21T03:22:23.997Z,9.70
2017-09-21T03:24:55.229Z,9.60
2017-09-21T03:27:25.945Z,9.70
2017-09-21T03:29:57.775Z,9.70
2017-09-21T03:32:28.651Z,9.70
2017-09-21T03:35:00.484Z,9.70
2017-09-21T03:37:31.798Z,9.60
2017-09-21T03:40:02.640Z,9.60
2017-09-21T03:42:33.967Z,9.70
2017-09-21T03:45:04.767Z,9.70
2017-09-21T03:47:36.606Z,9.70
2017-09-21T03:50:07.253Z,9.70
2017-09-21T03:52:38.927Z,9.60
2017-09-21T03:55:10.087Z,9.60
2017-09-21T03:57:41.207Z,9.50
2017-09-21T04:00:13.405Z,9.50
2017-09-21T04:02:44.236Z,9.50
2017-09-21T04:05:15.129Z,9.50
2017-09-21T04:07:46.356Z,9.40
2017-09-21T04:10:18.314Z,9.40
2017-09-21T04:12:49.458Z,9.30
2017-09-21T04:15:20.593Z,9.30
2017-09-21T04:17:51.452Z,9.30
2017-09-21T04:20:22.340Z,9.30
2017-09-21T04:22:53.598Z,9.20
2017-09-21T04:25:25.151Z,9.20
2017-09-21T04:27:56.023Z,9.20
2017-09-21T04:30:27.461Z,9.20
2017-09-21T04:32:58.805Z,9.20
2017-09-21T04:35:29.990Z,9.20
2017-09-21T04:38:01.866Z,9.20
2017-09-21T04:40:32.943Z,9.20
2017-09-21T04:43:04.233Z,9.20
2017-09-21T04:45:36.354Z,9.20
2017-09-21T04:48:07.148Z,9.30
2017-09-21T04:50:38.422Z,9.30
2017-09-21T04:53:09.844Z,9.20
2017-09-21T04:55:40.915Z,9.20
2017-09-21T04:58:11.927Z,9.20
2017-09-21T05:00:43.444Z,9.10
2017-09-21T05:03:14.604Z,9.10
2017-09-21T05:05:45.627Z,9.00
2017-09-21T05:08:17.741Z,9.00
2017-09-21T05:10:49.404Z,8.90
2017-09-21T05:13:20.929Z,8.90
2017-09-21T05:15:52.315Z,8.90
2017-09-21T05:18:23.605Z,8.80
2017-09-21T05:20:54.525Z,8.90
2017-09-21T05:23:25.665Z,8.80
2017-09-21T05:28:43.277Z,8.80
2017-09-21T05:31:15.111Z,8.80
2017-09-21T05:33:46.364Z,8.80
2017-09-21T05:38:50.804Z,8.80
2017-09-21T05:41:21.653Z,8.80
2017-09-21T05:43:53.585Z,8.80
2017-09-21T05:46:24.861Z,8.80
2017-09-21T05:48:56.643Z,8.80
2017-09-21T05:51:27.766Z,8.80
2017-09-21T05:53:58.402Z,8.90
2017-09-21T05:56:29.891Z,8.90
2017-09-21T05:59:01.359Z,8.80
2017-09-21T06:01:32.762Z,8.90
2017-09-21T06:04:03.961Z,8.80
2017-09-21T06:06:36.055Z,8.90
2017-09-21T06:09:07.142Z,8.90
2017-09-21T06:11:39.021Z,9.00
2017-09-21T06:14:11.198Z,9.10
2017-09-21T06:16:42.398Z,9.10
2017-09-21T06:19:14.029Z,9.10
2017-09-21T06:21:45.129Z,9.10
2017-09-21T06:24:17.239Z,9.30
2017-09-21T06:26:49.178Z,9.30
2017-09-21T06:29:20.897Z,9.50
2017-09-21T06:31:52.435Z,9.50
2017-09-21T06:34:23.511Z,9.70
2017-09-21T06:36:55.474Z,10.20
2017-09-21T06:39:27.064Z,10.70
2017-09-21T06:41:58.269Z,11.20
2017-09-21T06:44:30.916Z,12.10
2017-09-21T06:47:02.087Z,12.10
2017-09-21T06:49:33.283Z,12.50
2017-09-21T06:52:04.806Z,12.70
2017-09-21T06:54:36.311Z,12.60
2017-09-21T06:57:08.541Z,13.20
2017-09-21T06:59:40.818Z,14.10
2017-09-21T07:02:12.052Z,14.10
2017-09-21T07:04:43.952Z,14.50
2017-09-21T07:07:15.268Z,14.50
2017-09-21T07:09:46.859Z,15.40
2017-09-21T07:12:17.681Z,15.00
2017-09-21T07:14:49.843Z,15.70
2017-09-21T07:17:21.337Z,15.60
2017-09-21T07:19:52.436Z,15.50
2017-09-21T07:22:23.834Z,15.90
2017-09-21T07:24:55.333Z,16.00
2017-09-21T07:27:27.247Z,16.40
2017-09-21T07:29:58.633Z,16.70
2017-09-21T07:32:30.044Z,16.50
2017-09-21T07:35:01.843Z,17.50
2017-09-21T07:37:32.982Z,18.80
2017-09-21T07:40:04.545Z,19.10
2017-09-21T07:42:36.572Z,17.70
2017-09-21T07:45:07.914Z,16.80
2017-09-21T07:47:39.490Z,16.60
2017-09-21T07:50:10.700Z,16.80
2017-09-21T07:52:43.066Z,17.30
2017-09-21T07:55:15.395Z,18.30
2017-09-21T07:57:47.042Z,18.30
2017-09-21T08:00:18.375Z,19.30
2017-09-21T08:02:49.456Z,20.00
2017-09-21T08:05:21.467Z,19.30
2017-09-21T08:07:54.224Z,17.90
2017-09-21T08:10:25.355Z,17.80
2017-09-21T08:12:57.038Z,19.10
2017-09-21T08:15:28.394Z,17.70
2017-09-21T08:17:59.138Z,16.50
2017-09-21T08:20:30.683Z,17.20
2017-09-21T08:23:02.158Z,18.10
2017-09-21T08:25:33.971Z,18.40
2017-09-21T08:28:06.317Z,17.90
2017-09-21T08:30:37.545Z,17.90
2017-09-21T08:33:09.758Z,19.00
2017-09-21T08:35:41.180Z,19.60
2017-09-21T08:38:13.269Z,20.90
2017-09-21T08:40:45.307Z,20.50
2017-09-21T08:43:16.397Z,20.40
2017-09-21T08:45:47.911Z,20.20
2017-09-21T08:48:19.314Z,21.00
2017-09-21T08:50:50.637Z,21.00
2017-09-21T08:53:21.366Z,20.90
2017-09-21T08:55:53.354Z,21.50
2017-09-21T08:58:25.552Z,22.00
2017-09-21T09:00:57.014Z,22.00
2017-09-21T09:03:29.112Z,19.70
2017-09-21T09:06:01.175Z,20.80
2017-09-21T09:08:33.965Z,20.80
2017-09-21T09:11:06.137Z,22.40
2017-09-21T09:13:37.613Z,22.30
2017-09-21T09:16:09.197Z,23.00
2017-09-21T09:18:40.113Z,22.70
2017-09-21T09:21:10.998Z,23.30
2017-09-21T09:23:42.689Z,23.00
2017-09-21T09:26:14.222Z,23.00
2017-09-21T09:28:46.503Z,21.00
2017-09-21T09:31:17.795Z,21.00
2017-09-21T09:33:49.081Z,20.20
2017-09-21T09:36:20.681Z,21.70
2017-09-21T09:38:51.947Z,22.80
2017-09-21T09:41:24.667Z,23.90
2017-09-21T09:43:55.546Z,23.90
2017-09-21T09:46:26.655Z,24.40
2017-09-21T09:48:58.402Z,24.80
2017-09-21T09:51:29.591Z,25.20
2017-09-21T09:54:00.775Z,25.50
2017-09-21T09:56:33.058Z,24.90
2017-09-21T09:59:05.209Z,22.50
2017-09-21T10:01:37.819Z,23.30
2017-09-21T10:04:10.321Z,24.80
2017-09-21T10:06:42.126Z,24.70
2017-09-21T10:09:14.292Z,24.30
2017-09-21T10:11:45.835Z,24.20
2017-09-21T10:14:17.334Z,21.80
2017-09-21T10:16:48.409Z,21.60
2017-09-21T10:19:19.687Z,22.90
2017-09-21T10:21:51.956Z,23.60
2017-09-21T10:24:24.199Z,24.60
2017-09-21T10:26:55.243Z,24.60
2017-09-21T10:29:26.754Z,24.40
2017-09-21T10:31:58.988Z,25.00
2017-09-21T10:34:30.977Z,25.30
2017-09-21T10:37:02.992Z,25.30
2017-09-21T10:39:34.718Z,25.50
2017-09-21T10:42:06.770Z,25.40
2017-09-21T10:44:37.778Z,24.10
2017-09-21T10:47:08.747Z,24.20
2017-09-21T10:49:39.698Z,25.00
2017-09-21T10:52:10.730Z,25.40
2017-09-21T10:54:41.841Z,25.50
2017-09-21T10:57:12.488Z,25.50
2017-09-21T10:59:43.694Z,25.10
2017-09-21T11:02:16.082Z,24.30
2017-09-21T11:04:48.176Z,24.20
2017-09-21T11:07:19.343Z,24.20
2017-09-21T11:09:50.785Z,24.10
2017-09-21T11:12:22.179Z,24.50
2017-09-21T11:14:54.032Z,24.20
2017-09-21T11:17:26.111Z,24.20
2017-09-21T11:19:57.930Z,24.10
2017-09-21T11:22:29.371Z,24.60
2017-09-21T11:25:01.267Z,25.20
2017-09-21T11:27:32.895Z,25.50
2017-09-21T11:30:05.248Z,24.70
2017-09-21T11:32:37.000Z,24.70
2017-09-21T11:35:08.070Z,24.80
2017-09-21T11:37:40.049Z,24.60
2017-09-21T11:40:12.094Z,24.20
2017-09-21T11:42:43.626Z,24.20
2017-09-21T11:45:15.094Z,23.90
2017-09-21T11:47:47.612Z,22.80
2017-09-21T11:50:18.595Z,22.80
2017-09-21T11:52:50.199Z,23.20
2017-09-21T11:55:21.917Z,23.90
2017-09-21T11:57:53.178Z,23.90
2017-09-21T12:00:25.527Z,24.10
2017-09-21T12:02:56.044Z,24.10
2017-09-21T12:05:27.300Z,24.30
2017-09-21T12:07:58.566Z,24.60
2017-09-21T12:10:30.211Z,23.70
2017-09-21T12:13:01.972Z,23.40
2017-09-21T12:15:32.785Z,23.40
2017-09-21T12:18:04.095Z,22.30
2017-09-21T12:20:35.672Z,22.50
2017-09-21T12:23:07.738Z,22.50
2017-09-21T12:25:38.686Z,22.40
2017-09-21T12:28:11.109Z,23.40
2017-09-21T12:30:42.197Z,23.40
2017-09-21T12:33:13.364Z,23.70
2017-09-21T12:35:45.140Z,22.90
2017-09-21T12:38:16.496Z,22.90
2017-09-21T12:40:47.141Z,23.20
2017-09-21T12:43:18.559Z,23.00
2017-09-21T12:45:51.689Z,22.70
2017-09-21T12:48:24.284Z,22.70
2017-09-21T12:50:55.322Z,22.60
2017-09-21T12:53:27.712Z,21.80
2017-09-21T12:55:59.008Z,21.80
2017-09-21T12:58:30.090Z,21.70
2017-09-21T13:01:02.502Z,21.40
2017-09-21T13:03:33.870Z,21.40
2017-09-21T13:06:05.794Z,22.10
2017-09-21T13:08:38.109Z,22.20
2017-09-21T13:11:10.352Z,22.50
2017-09-21T13:13:41.387Z,22.50
2017-09-21T13:16:13.316Z,22.40
2017-09-21T13:18:45.263Z,22.20
2017-09-21T13:21:16.993Z,22.10
2017-09-21T13:23:49.803Z,21.90
2017-09-21T13:26:22.310Z,22.50
2017-09-21T13:28:53.464Z,22.40
2017-09-21T13:31:25.609Z,22.30
2017-09-21T13:33:57.260Z,21.60
2017-09-21T13:36:28.398Z,21.20
2017-09-21T13:38:59.584Z,21.20
2017-09-21T13:41:30.622Z,21.10
2017-09-21T13:44:01.803Z,21.70
2017-09-21T13:46:33.597Z,21.60
2017-09-21T13:49:04.292Z,21.60
2017-09-21T13:51:35.495Z,21.30
2017-09-21T13:54:07.199Z,21.10
2017-09-21T13:56:38.277Z,20.80
2017-09-21T13:59:09.268Z,20.80
2017-09-21T14:01:40.534Z,21.00
2017-09-21T14:04:13.006Z,20.90
2017-09-21T14:06:44.459Z,20.90
2017-09-21T14:09:15.523Z,21.40
2017-09-21T14:11:46.804Z,21.20
2017-09-21T14:14:18.292Z,21.80
2017-09-21T14:19:21.730Z,22.10
2017-09-21T14:21:53.351Z,22.10
2017-09-21T14:24:25.329Z,22.20
2017-09-21T14:26:56.739Z,22.20
2017-09-21T14:29:27.895Z,21.90
2017-09-21T14:31:59.884Z,21.70
2017-09-21T14:34:30.689Z,21.40
2017-09-21T14:37:02.776Z,22.00
2017-09-21T14:39:34.143Z,22.00
2017-09-21T14:42:04.976Z,21.50
2017-09-21T14:44:36.268Z,21.20
2017-09-21T14:47:07.486Z,21.50
2017-09-21T14:49:38.639Z,21.60
2017-09-21T14:52:10.567Z,20.80
2017-09-21T14:54:42.160Z,20.80
2017-09-21T14:57:12.754Z,21.20
2017-09-21T14:59:43.786Z,21.60
2017-09-21T15:02:15.486Z,21.20
2017-09-21T15:04:47.105Z,21.20
2017-09-21T15:07:17.764Z,20.70
2017-09-21T15:09:48.830Z,20.50
2017-09-21T15:12:20.371Z,20.10
2017-09-21T15:14:51.320Z,20.00
2017-09-21T15:17:22.550Z,20.00
2017-09-21T15:19:53.566Z,20.00
2017-09-21T15:22:24.482Z,20.10
2017-09-21T15:24:56.360Z,20.20
2017-09-21T15:27:27.446Z,20.10
2017-09-21T15:29:58.662Z,20.00
2017-09-21T15:32:30.244Z,19.70
2017-09-21T15:35:02.216Z,19.60
2017-09-21T15:37:34.169Z,19.60
2017-09-21T15:40:05.767Z,19.60
2017-09-21T15:42:36.968Z,19.50
2017-09-21T15:45:07.749Z,19.60
2017-09-21T15:47:38.788Z,19.60
2017-09-21T15:50:10.632Z,19.30
2017-09-21T15:52:41.870Z,19.30
2017-09-21T15:55:14.256Z,19.20
2017-09-21T15:57:45.893Z,19.20
2017-09-21T16:00:17.699Z,19.10
2017-09-21T16:02:48.533Z,19.10
2017-09-21T16:05:20.015Z,20.10
2017-09-21T16:07:51.051Z,19.20
2017-09-21T16:10:22.460Z,19.20
2017-09-21T16:12:52.983Z,19.20
2017-09-21T16:15:23.804Z,19.30
2017-09-21T16:17:55.431Z,19.20
2017-09-21T16:20:26.105Z,19.10
2017-09-21T16:22:57.203Z,19.10
2017-09-21T16:25:28.454Z,19.20
2017-09-21T16:27:59.141Z,19.00
2017-09-21T16:30:30.467Z,19.00
2017-09-21T16:33:01.359Z,19.10
2017-09-21T16:35:32.177Z,19.10
2017-09-21T16:38:03.984Z,19.10
2017-09-21T16:40:35.692Z,19.00
2017-09-21T16:43:06.881Z,19.00
2017-09-21T16:45:38.294Z,18.80
2017-09-21T16:48:08.910Z,18.80
2017-09-21T16:50:40.177Z,18.70
2017-09-21T16:53:10.786Z,18.70
2017-09-21T16:55:42.040Z,18.60
2017-09-21T16:58:13.480Z,18.60
2017-09-21T17:04:17.333Z,18.40
2017-09-21T17:06:48.345Z,18.40
2017-09-21T17:09:19.302Z,18.40
2017-09-21T17:11:48.651Z,18.40
2017-09-21T17:14:19.872Z,18.30
2017-09-21T17:16:51.868Z,18.20
2017-09-21T17:19:23.501Z,18.20
2017-09-21T17:21:53.808Z,18.10
2017-09-21T17:24:25.773Z,18.00
2017-09-21T17:26:57.501Z,17.90
2017-09-21T17:29:29.729Z,17.90
2017-09-21T17:32:00.529Z,17.80
2017-09-21T17:34:31.564Z,17.80
2017-09-21T17:37:03.548Z,17.60
2017-09-21T17:39:34.505Z,17.60
2017-09-21T17:42:06.299Z,17.60
2017-09-21T17:44:38.647Z,17.40
2017-09-21T17:47:09.787Z,17.40
2017-09-21T17:49:40.877Z,17.30
2017-09-21T17:52:12.658Z,17.20
2017-09-21T17:54:43.634Z,17.20
2017-09-21T17:57:14.100Z,17.10
2017-09-21T17:59:45.784Z,17.10
2017-09-21T18:02:16.859Z,17.00
2017-09-21T18:04:48.110Z,17.00
2017-09-21T18:07:18.646Z,16.90
2017-09-21T18:09:49.714Z,16.90
2017-09-21T18:12:20.778Z,16.80
2017-09-21T18:14:51.263Z,16.80
2017-09-21T18:17:22.621Z,16.80
2017-09-21T18:19:53.889Z,16.70
2017-09-21T18:22:24.892Z,16.70
2017-09-21T18:24:56.027Z,16.70
2017-09-21T18:27:26.565Z,16.70
2017-09-21T18:29:56.931Z,16.60
2017-09-21T18:32:27.948Z,16.60
2017-09-21T18:34:58.196Z,16.60
2017-09-21T18:37:29.277Z,16.50
2017-09-21T18:39:59.726Z,16.50
2017-09-21T18:42:30.685Z,16.50
2017-09-21T18:45:01.915Z,16.40
2017-09-21T18:47:33.393Z,16.30
2017-09-21T18:50:04.414Z,16.30
2017-09-21T18:52:35.408Z,16.30
2017-09-21T18:55:06.384Z,16.20
2017-09-21T18:57:37.120Z,16.20
2017-09-21T19:00:07.919Z,16.10
2017-09-21T19:02:38.777Z,16.10
2017-09-21T19:05:10.710Z,16.00
2017-09-21T19:07:41.272Z,16.00
2017-09-21T19:10:12.557Z,16.00
2017-09-21T19:12:43.466Z,15.90
2017-09-21T19:15:14.231Z,15.90
2017-09-21T19:17:45.080Z,15.80
2017-09-21T19:20:16.147Z,15.80
2017-09-21T19:22:47.656Z,15.70
2017-09-21T19:25:19.336Z,15.70
2017-09-21T19:27:50.110Z,15.70
2017-09-21T19:30:20.803Z,15.60
2017-09-21T19:32:51.609Z,15.60
2017-09-21T19:35:22.765Z,15.50
2017-09-21T19:37:55.014Z,15.50
2017-09-21T19:40:26.489Z,15.50
2017-09-21T19:42:57.323Z,15.40
2017-09-21T19:45:28.857Z,15.40
2017-09-21T19:48:00.742Z,15.40
2017-09-21T19:50:31.656Z,15.40
2017-09-21T19:53:02.978Z,15.30
2017-09-21T19:55:33.716Z,15.30
2017-09-21T19:58:04.583Z,15.20
2017-09-21T20:00:35.572Z,15.20
2017-09-21T20:03:07.216Z,15.00
2017-09-21T20:05:38.047Z,15.00
2017-09-21T20:08:08.959Z,14.90
2017-09-21T20:10:39.596Z,14.90
2017-09-21T20:13:10.635Z,14.80
2017-09-21T20:15:42.511Z,14.70
2017-09-21T20:18:13.540Z,14.70
2017-09-21T20:20:43.993Z,14.60
2017-09-21T20:23:14.716Z,14.60
2017-09-21T20:25:46.985Z,14.50
2017-09-21T20:28:18.609Z,14.50
2017-09-21T20:30:49.374Z,14.50
2017-09-21T20:33:21.019Z,14.40
2017-09-21T20:35:51.755Z,14.40
2017-09-21T20:38:22.755Z,14.30
2017-09-21T20:40:54.228Z,14.40
2017-09-21T20:43:25.004Z,14.40
2017-09-21T20:45:55.839Z,14.40
2017-09-21T20:48:26.802Z,14.50
2017-09-21T20:50:59.647Z,14.50
2017-09-21T20:53:30.013Z,14.50
2017-09-21T20:56:01.437Z,14.50
2017-09-21T20:58:33.135Z,14.50
2017-09-21T21:01:04.707Z,14.50
2017-09-21T21:03:35.516Z,14.40
2017-09-21T21:06:06.441Z,14.50
2017-09-21T21:08:37.767Z,14.40
2017-09-21T21:11:08.111Z,14.40
2017-09-21T21:13:38.458Z,14.40
2017-09-21T21:16:09.201Z,14.40
2017-09-21T21:18:39.898Z,14.40
2017-09-21T21:21:11.649Z,14.30
2017-09-21T21:23:42.528Z,14.40
2017-09-21T21:26:14.007Z,14.30
2017-09-21T21:28:44.756Z,14.30
2017-09-21T21:31:15.608Z,14.30
2017-09-21T21:33:47.197Z,14.20
2017-09-21T21:36:18.706Z,14.00
2017-09-21T21:38:49.617Z,14.00
2017-09-21T21:41:20.672Z,13.80
2017-09-21T21:43:51.619Z,13.70
2017-09-21T21:46:22.427Z,13.70
2017-09-21T21:48:53.318Z,13.70
2017-09-21T21:51:24.844Z,13.80
2017-09-21T21:53:55.321Z,13.80
2017-09-21T21:56:26.666Z,13.90
2017-09-21T21:58:58.297Z,13.90
2017-09-21T22:01:29.029Z,13.90
2017-09-21T22:03:59.864Z,13.80
2017-09-21T22:06:30.648Z,13.80
2017-09-21T22:09:01.419Z,13.80
2017-09-21T22:11:31.806Z,13.90
2017-09-21T22:14:02.624Z,13.80
2017-09-21T22:16:33.842Z,13.70
2017-09-21T22:19:05.257Z,13.60
2017-09-21T22:21:36.122Z,13.50
2017-09-21T22:24:07.002Z,13.60
2017-09-21T22:26:38.069Z,13.50
2017-09-21T22:29:08.831Z,13.50
2017-09-21T22:31:39.453Z,13.40
2017-09-21T22:34:09.992Z,13.40
2017-09-21T22:36:40.583Z,13.30
2017-09-21T22:39:11.307Z,13.30
2017-09-21T22:41:41.948Z,13.20
2017-09-21T22:44:12.631Z,13.10
2017-09-21T22:46:43.105Z,13.10
2017-09-21T22:49:14.178Z,13.00
2017-09-21T22:51:45.250Z,13.00
2017-09-21T22:54:16.417Z,13.00
2017-09-21T22:56:47.692Z,12.90
2017-09-21T22:59:18.839Z,13.00
2017-09-21T23:01:49.510Z,13.00
2017-09-21T23:04:20.675Z,12.90
2017-09-21T23:06:52.278Z,12.90
2017-09-21T23:09:23.167Z,12.80
2017-09-21T23:11:54.494Z,12.80
2017-09-21T23:14:25.168Z,12.80
2017-09-21T23:16:56.189Z,12.80
2017-09-21T23:19:27.105Z,12.80
2017-09-21T23:21:58.133Z,12.80
2017-09-21T23:24:28.861Z,12.80
2017-09-21T23:26:59.832Z,12.70
2017-09-21T23:29:31.294Z,12.70
2017-09-21T23:32:01.793Z,12.60
2017-09-21T23:34:32.298Z,12.70
2017-09-21T23:37:03.021Z,12.70
2017-09-21T23:39:33.639Z,12.70
2017-09-21T23:42:04.272Z,12.70
2017-09-21T23:44:35.866Z,12.80
2017-09-21T23:47:06.489Z,12.80
2017-09-21T23:49:37.152Z,12.80
2017-09-21T23:52:08.204Z,12.70
2017-09-21T23:54:38.937Z,12.60
2017-09-21T23:57:09.843Z,12.50
2017-09-21T23:59:41.436Z,12.50
